createdAt,value
2019-01-27T00:00:33.685Z,89.44
2019-01-27T00:01:33.764Z,89.23
2019-01-27T00:02:33.666Z,89.44
2019-01-27T00:03:33.747Z,89.71
2019-01-27T00:04:33.642Z,89.54
2019-01-27T00:05:33.727Z,89.50
2019-01-27T00:06:33.618Z,89.61
2019-01-27T00:07:33.667Z,89.34
2019-01-27T00:08:33.608Z,89.23
2019-01-27T00:09:33.599Z,89.75
2019-01-27T00:10:33.568Z,89.65
2019-01-27T00:11:33.639Z,89.54
2019-01-27T00:12:33.549Z,89.75
2019-01-27T00:13:33.629Z,89.81
2019-01-27T00:14:33.531Z,89.75
2019-01-27T00:15:33.520Z,88.82
2019-01-27T00:16:33.571Z,88.92
2019-01-27T00:17:33.491Z,88.26
2019-01-27T00:18:33.561Z,88.36
2019-01-27T00:19:33.461Z,88.46
2019-01-27T00:20:33.462Z,88.05
2019-01-27T00:21:33.443Z,88.46
2019-01-27T00:22:33.503Z,88.05
2019-01-27T00:23:33.434Z,88.46
2019-01-27T00:24:33.520Z,88.36
2019-01-27T00:25:33.406Z,88.78
2019-01-27T00:26:33.455Z,88.71
2019-01-27T00:27:33.385Z,89.13
2019-01-27T00:28:33.445Z,88.40
2019-01-27T00:29:33.345Z,88.78
2019-01-27T00:30:33.426Z,88.88
2019-01-27T00:31:33.326Z,88.98
2019-01-27T00:32:33.356Z,88.78
2019-01-27T00:33:33.316Z,88.67
2019-01-27T00:34:33.397Z,89.34
2019-01-27T00:35:33.288Z,89.44
2019-01-27T00:36:33.268Z,89.86
2019-01-27T00:37:33.259Z,89.19
2019-01-27T00:38:33.310Z,89.23
2019-01-27T00:39:33.250Z,89.75
2019-01-27T00:40:33.312Z,89.44
2019-01-27T00:41:33.221Z,89.13
2019-01-27T00:42:33.241Z,89.34
2019-01-27T00:43:33.220Z,89.65
2019-01-27T00:44:33.281Z,89.54
2019-01-27T00:45:33.182Z,88.71
2019-01-27T00:46:33.215Z,88.46
2019-01-27T00:47:33.154Z,88.67
2019-01-27T00:48:33.204Z,87.95
2019-01-27T00:49:33.133Z,87.95
2019-01-27T00:50:33.183Z,88.88
2019-01-27T00:51:33.114Z,88.26
2019-01-27T00:52:33.105Z,88.15
2019-01-27T00:53:33.125Z,88.05
2019-01-27T00:54:33.159Z,88.15
2019-01-27T00:55:33.066Z,88.15
2019-01-27T00:56:33.095Z,88.78
2019-01-27T00:57:33.060Z,88.57
2019-01-27T00:58:33.037Z,88.67
2019-01-27T00:59:33.147Z,89.09
2019-01-27T01:00:33.007Z,89.23
2019-01-27T01:01:33.028Z,89.65
2019-01-27T01:02:32.988Z,89.96
2019-01-27T01:03:33.068Z,90.27
2019-01-27T01:04:32.980Z,90.48
2019-01-27T01:05:33.007Z,90.58
2019-01-27T01:06:32.951Z,90.48
2019-01-27T01:07:33.041Z,90.52
2019-01-27T01:08:32.911Z,90.20
2019-01-27T01:09:33.021Z,90.31
2019-01-27T01:10:32.891Z,90.20
2019-01-27T01:11:32.911Z,91.24
2019-01-27T01:12:32.872Z,90.77
2019-01-27T01:13:32.853Z,91.39
2019-01-27T01:14:32.863Z,91.28
2019-01-27T01:15:32.889Z,91.60
2019-01-27T01:16:32.826Z,92.47
2019-01-27T01:17:32.914Z,91.91
2019-01-27T01:18:32.806Z,91.85
2019-01-27T01:19:32.895Z,92.47
2019-01-27T01:20:32.776Z,92.88
2019-01-27T01:21:32.786Z,92.68
2019-01-27T01:22:32.755Z,93.30
2019-01-27T01:23:33.856Z,92.99
2019-01-27T01:24:32.779Z,92.99
2019-01-27T01:25:32.767Z,92.68
2019-01-27T01:26:32.723Z,92.57
2019-01-27T01:27:32.809Z,92.99
2019-01-27T01:28:32.700Z,93.66
2019-01-27T01:29:32.699Z,93.66
2019-01-27T01:30:32.678Z,93.55
2019-01-27T01:31:32.791Z,93.35
2019-01-27T01:32:32.650Z,93.24
2019-01-27T01:33:32.709Z,93.66
2019-01-27T01:34:32.650Z,94.07
2019-01-27T01:35:32.641Z,93.93
2019-01-27T01:36:32.610Z,94.07
2019-01-27T01:37:32.682Z,94.28
2019-01-27T01:38:32.591Z,94.07
2019-01-27T01:39:32.663Z,94.07
2019-01-27T01:40:32.562Z,93.45
2019-01-27T01:41:32.653Z,93.45
2019-01-27T01:42:32.543Z,93.76
2019-01-27T01:43:32.584Z,93.55
2019-01-27T01:44:32.534Z,93.66
2019-01-27T01:45:32.505Z,94.38
2019-01-27T01:46:32.485Z,94.07
2019-01-27T01:47:32.555Z,93.45
2019-01-27T01:48:32.475Z,93.82
2019-01-27T01:49:32.545Z,94.03
2019-01-27T01:50:32.566Z,93.51
2019-01-27T01:51:32.436Z,93.62
2019-01-27T01:52:32.498Z,93.30
2019-01-27T01:53:32.407Z,93.30
2019-01-27T01:54:32.478Z,93.62
2019-01-27T01:55:32.388Z,93.62
2019-01-27T01:56:32.469Z,93.72
2019-01-27T01:57:32.360Z,93.57
2019-01-27T01:58:32.399Z,93.57
2019-01-27T01:59:32.360Z,93.78
2019-01-27T02:00:32.440Z,93.68
2019-01-27T02:01:32.320Z,93.78
2019-01-27T02:02:32.372Z,93.47
2019-01-27T02:03:32.306Z,93.05
2019-01-27T02:04:32.353Z,93.05
2019-01-27T02:05:32.273Z,93.05
2019-01-27T02:06:32.264Z,93.78
2019-01-27T02:07:32.253Z,93.57
2019-01-27T02:08:32.273Z,93.63
2019-01-27T02:09:32.246Z,93.47
2019-01-27T02:10:32.315Z,92.69
2019-01-27T02:11:32.215Z,92.07
2019-01-27T02:12:32.255Z,92.14
2019-01-27T02:13:32.195Z,91.03
2019-01-27T02:14:32.246Z,91.00
2019-01-27T02:15:32.178Z,91.52
2019-01-27T02:16:32.226Z,91.45
2019-01-27T02:17:32.148Z,90.89
2019-01-27T02:18:32.168Z,91.10
2019-01-27T02:19:32.147Z,91.24
2019-01-27T02:20:32.198Z,91.10
2019-01-27T02:21:32.108Z,91.10
2019-01-27T02:22:32.099Z,91.00
2019-01-27T02:23:32.079Z,91.10
2019-01-27T02:24:32.120Z,91.20
2019-01-27T02:25:32.059Z,91.00
2019-01-27T02:26:32.111Z,91.20
2019-01-27T02:27:32.084Z,91.66
2019-01-27T02:28:32.032Z,91.66
2019-01-27T02:29:32.062Z,91.86
2019-01-27T02:30:32.002Z,91.55
2019-01-27T02:31:32.042Z,92.14
2019-01-27T02:32:31.983Z,92.28
2019-01-27T02:33:31.973Z,92.28
2019-01-27T02:34:31.994Z,92.59
2019-01-27T02:35:31.954Z,92.07
2019-01-27T02:36:31.984Z,91.93
2019-01-27T02:37:31.926Z,92.03
2019-01-27T02:38:31.906Z,91.62
2019-01-27T02:39:31.915Z,91.41
2019-01-27T02:40:31.958Z,91.52
2019-01-27T02:41:31.876Z,92.07
2019-01-27T02:42:31.887Z,92.03
2019-01-27T02:43:31.953Z,92.28
2019-01-27T02:44:31.858Z,91.62
2019-01-27T02:45:31.888Z,92.14
2019-01-27T02:46:31.817Z,91.93
2019-01-27T02:47:31.832Z,92.14
2019-01-27T02:48:31.793Z,92.35
2019-01-27T02:49:31.800Z,92.38
2019-01-27T02:50:31.833Z,91.86
2019-01-27T02:51:31.760Z,92.49
2019-01-27T02:52:31.771Z,92.18
2019-01-27T02:53:31.741Z,91.97
2019-01-27T02:54:31.752Z,91.76
2019-01-27T02:55:31.722Z,92.07
2019-01-27T02:56:31.742Z,91.97
2019-01-27T02:57:31.706Z,92.18
2019-01-27T02:58:31.789Z,92.38
2019-01-27T02:59:31.802Z,92.59
2019-01-27T03:00:31.664Z,92.49
2019-01-27T03:01:31.684Z,92.18
2019-01-27T03:02:31.646Z,92.28
2019-01-27T03:03:32.745Z,92.49
2019-01-27T03:04:31.627Z,92.59
2019-01-27T03:05:31.706Z,92.38
2019-01-27T03:06:31.596Z,92.38
2019-01-27T03:07:31.697Z,92.01
2019-01-27T03:08:31.577Z,91.91
2019-01-27T03:09:32.653Z,92.57
2019-01-27T03:10:31.567Z,93.10
2019-01-27T03:11:31.558Z,93.20
2019-01-27T03:12:31.527Z,93.20
2019-01-27T03:13:31.605Z,93.57
2019-01-27T03:14:31.508Z,93.16
2019-01-27T03:15:31.504Z,93.41
2019-01-27T03:16:31.469Z,93.78
2019-01-27T03:17:31.570Z,93.26
2019-01-27T03:18:31.461Z,92.84
2019-01-27T03:19:31.501Z,92.84
2019-01-27T03:20:31.521Z,92.63
2019-01-27T03:21:31.433Z,92.63
2019-01-27T03:22:31.513Z,93.37
2019-01-27T03:23:31.402Z,93.16
2019-01-27T03:24:31.443Z,93.57
2019-01-27T03:25:31.403Z,94.03
2019-01-27T03:26:31.485Z,93.37
2019-01-27T03:27:31.363Z,93.47
2019-01-27T03:28:31.416Z,93.99
2019-01-27T03:29:31.347Z,93.68
2019-01-27T03:30:31.474Z,93.22
2019-01-27T03:31:31.306Z,93.47
2019-01-27T03:32:31.388Z,93.63
2019-01-27T03:33:31.297Z,93.63
2019-01-27T03:34:33.377Z,94.09
2019-01-27T03:35:31.277Z,93.68
2019-01-27T03:36:31.257Z,94.09
2019-01-27T03:37:31.239Z,94.82
2019-01-27T03:38:31.290Z,94.71
2019-01-27T03:39:31.218Z,94.51
2019-01-27T03:40:31.280Z,94.09
2019-01-27T03:41:31.212Z,94.51
2019-01-27T03:42:31.269Z,94.09
2019-01-27T03:43:31.180Z,94.51
2019-01-27T03:44:31.211Z,93.99
2019-01-27T03:45:31.181Z,94.61
2019-01-27T03:46:31.241Z,94.82
2019-01-27T03:47:31.146Z,94.86
2019-01-27T03:48:31.184Z,94.51
2019-01-27T03:49:31.114Z,94.82
2019-01-27T03:50:31.163Z,95.03
2019-01-27T03:51:31.093Z,94.82
2019-01-27T03:52:31.084Z,94.92
2019-01-27T03:53:31.076Z,94.82
2019-01-27T03:54:31.084Z,94.92
2019-01-27T03:55:31.067Z,95.17
2019-01-27T03:56:31.126Z,94.92
2019-01-27T03:57:31.085Z,95.90
2019-01-27T03:58:31.016Z,95.75
2019-01-27T03:59:31.026Z,95.65
2019-01-27T04:00:31.007Z,95.44
2019-01-27T04:01:31.058Z,95.69
2019-01-27T04:02:30.969Z,95.48
2019-01-27T04:03:30.960Z,95.65
2019-01-27T04:04:31.069Z,95.90
2019-01-27T04:05:30.949Z,96.00
2019-01-27T04:06:31.005Z,96.00
2019-01-27T04:07:30.921Z,95.90
2019-01-27T04:08:30.890Z,95.90
2019-01-27T04:09:31.920Z,95.48
2019-01-27T04:10:30.890Z,95.13
2019-01-27T04:11:30.931Z,94.71
2019-01-27T04:12:30.851Z,94.40
2019-01-27T04:13:30.843Z,94.82
2019-01-27T04:14:30.842Z,94.71
2019-01-27T04:15:30.859Z,94.61
2019-01-27T04:16:30.813Z,94.92
2019-01-27T04:17:30.845Z,94.65
2019-01-27T04:18:30.794Z,94.65
2019-01-27T04:19:30.873Z,94.09
2019-01-27T04:20:30.784Z,94.55
2019-01-27T04:21:30.815Z,94.65
2019-01-27T04:22:30.735Z,94.86
2019-01-27T04:23:30.745Z,94.86
2019-01-27T04:24:30.716Z,94.86
2019-01-27T04:25:30.840Z,94.34
2019-01-27T04:26:30.697Z,94.76
2019-01-27T04:27:30.718Z,95.28
2019-01-27T04:28:30.677Z,96.15
2019-01-27T04:29:30.671Z,96.11
2019-01-27T04:30:30.780Z,96.21
2019-01-27T04:31:30.650Z,96.00
2019-01-27T04:32:30.672Z,95.38
2019-01-27T04:33:30.633Z,96.21
2019-01-27T04:34:30.609Z,96.21
2019-01-27T04:35:30.619Z,95.48
2019-01-27T04:36:30.641Z,95.69
2019-01-27T04:37:30.582Z,95.69
2019-01-27T04:38:30.671Z,94.86
2019-01-27T04:39:30.563Z,94.76
2019-01-27T04:40:30.663Z,94.65
2019-01-27T04:41:30.532Z,94.40
2019-01-27T04:42:30.544Z,94.76
2019-01-27T04:43:30.513Z,94.71
2019-01-27T04:44:30.584Z,94.51
2019-01-27T04:45:30.504Z,94.55
2019-01-27T04:46:30.515Z,94.71
2019-01-27T04:47:30.465Z,94.65
2019-01-27T04:48:30.559Z,94.40
2019-01-27T04:49:30.447Z,94.86
2019-01-27T04:50:30.454Z,94.61
2019-01-27T04:51:30.431Z,94.82
2019-01-27T04:52:30.529Z,94.30
2019-01-27T04:53:30.388Z,93.47
2019-01-27T04:54:30.457Z,93.88
2019-01-27T04:55:30.468Z,93.53
2019-01-27T04:56:30.359Z,93.47
2019-01-27T04:57:30.459Z,93.32
2019-01-27T04:58:30.350Z,92.90
2019-01-27T04:59:30.399Z,93.01
2019-01-27T05:00:30.349Z,92.69
2019-01-27T05:01:32.380Z,92.90
2019-01-27T05:02:30.292Z,93.12
2019-01-27T05:03:30.372Z,92.35
2019-01-27T05:04:30.270Z,92.55
2019-01-27T05:05:30.341Z,92.49
2019-01-27T05:06:30.254Z,92.14
2019-01-27T05:07:30.332Z,92.59
2019-01-27T05:08:30.223Z,92.38
2019-01-27T05:09:30.273Z,93.01
2019-01-27T05:10:30.224Z,92.90
2019-01-27T05:11:30.213Z,93.84
2019-01-27T05:12:30.233Z,93.74
2019-01-27T05:13:30.254Z,93.32
2019-01-27T05:14:30.166Z,93.84
2019-01-27T05:15:30.188Z,93.63
2019-01-27T05:16:30.156Z,93.47
2019-01-27T05:17:30.226Z,93.99
2019-01-27T05:18:30.130Z,94.05
2019-01-27T05:19:30.156Z,93.95
2019-01-27T05:20:30.099Z,94.05
2019-01-27T05:21:30.147Z,93.32
2019-01-27T05:22:30.079Z,93.74
2019-01-27T05:23:30.128Z,94.09
2019-01-27T05:24:30.049Z,94.09
2019-01-27T05:25:30.071Z,93.88
2019-01-27T05:26:30.041Z,94.40
2019-01-27T05:27:30.020Z,94.51
2019-01-27T05:28:30.071Z,94.30
2019-01-27T05:29:29.992Z,94.82
2019-01-27T05:30:30.011Z,93.99
2019-01-27T05:31:29.981Z,93.47
2019-01-27T05:32:29.978Z,93.99
2019-01-27T05:33:29.951Z,93.93
2019-01-27T05:34:29.973Z,93.88
2019-01-27T05:35:29.923Z,93.78
2019-01-27T05:36:29.953Z,94.51
2019-01-27T05:37:29.893Z,94.03
2019-01-27T05:38:29.954Z,94.24
2019-01-27T05:39:29.880Z,94.55
2019-01-27T05:40:29.886Z,94.65
2019-01-27T05:41:29.864Z,94.51
2019-01-27T05:42:29.926Z,94.40
2019-01-27T05:43:29.825Z,94.51
2019-01-27T05:44:29.856Z,94.51
2019-01-27T05:45:29.817Z,94.71
2019-01-27T05:46:29.838Z,93.99
2019-01-27T05:47:29.777Z,93.47
2019-01-27T05:48:29.767Z,93.37
2019-01-27T05:49:29.760Z,93.78
2019-01-27T05:50:29.870Z,93.74
2019-01-27T05:51:29.752Z,93.78
2019-01-27T05:52:29.802Z,93.26
2019-01-27T05:53:29.710Z,93.37
2019-01-27T05:54:29.730Z,93.47
2019-01-27T05:55:29.702Z,93.57
2019-01-27T05:56:29.724Z,93.88
2019-01-27T05:57:29.682Z,93.47
2019-01-27T05:58:29.721Z,93.78
2019-01-27T05:59:29.652Z,94.09
2019-01-27T06:00:29.752Z,93.68
2019-01-27T06:01:29.643Z,93.68
2019-01-27T06:02:29.694Z,94.13
2019-01-27T06:03:29.615Z,94.51
2019-01-27T06:04:29.594Z,94.61
2019-01-27T06:05:29.585Z,94.96
2019-01-27T06:06:29.604Z,94.96
2019-01-27T06:07:29.565Z,94.76
2019-01-27T06:08:29.595Z,94.76
2019-01-27T06:09:29.566Z,94.96
2019-01-27T06:10:29.527Z,94.96
2019-01-27T06:11:29.547Z,94.65
2019-01-27T06:12:29.507Z,94.76
2019-01-27T06:13:29.537Z,95.07
2019-01-27T06:14:29.489Z,95.17
2019-01-27T06:15:29.569Z,95.17
2019-01-27T06:16:29.478Z,95.23
2019-01-27T06:17:29.511Z,94.92
2019-01-27T06:18:29.439Z,95.07
2019-01-27T06:19:29.450Z,95.69
2019-01-27T06:20:29.421Z,95.69
2019-01-27T06:21:29.520Z,95.69
2019-01-27T06:22:29.381Z,95.59
2019-01-27T06:23:30.443Z,95.69
2019-01-27T06:24:29.372Z,95.79
2019-01-27T06:25:29.373Z,95.38
2019-01-27T06:26:29.400Z,95.69
2019-01-27T06:27:29.394Z,95.63
2019-01-27T06:28:29.313Z,95.59
2019-01-27T06:29:29.323Z,96.15
2019-01-27T06:30:29.295Z,96.47
2019-01-27T06:31:29.406Z,96.52
2019-01-27T06:32:29.275Z,96.11
2019-01-27T06:33:29.295Z,96.31
2019-01-27T06:34:29.254Z,96.42
2019-01-27T06:35:29.326Z,97.35
2019-01-27T06:36:29.347Z,97.35
2019-01-27T06:37:29.220Z,96.42
2019-01-27T06:38:29.247Z,96.25
2019-01-27T06:39:29.214Z,96.25
2019-01-27T06:40:29.278Z,96.67
2019-01-27T06:41:29.298Z,96.47
2019-01-27T06:42:29.176Z,96.62
2019-01-27T06:43:29.180Z,96.83
2019-01-27T06:44:29.150Z,96.98
2019-01-27T06:45:29.220Z,96.98
2019-01-27T06:46:29.139Z,97.19
2019-01-27T06:47:29.150Z,97.40
2019-01-27T06:48:29.101Z,96.88
2019-01-27T06:49:29.193Z,96.88
2019-01-27T06:50:29.081Z,96.88
2019-01-27T06:51:29.172Z,97.19
2019-01-27T06:52:29.052Z,97.19
2019-01-27T06:53:31.113Z,97.19
2019-01-27T06:54:29.089Z,97.61
2019-01-27T06:55:29.105Z,96.67
2019-01-27T06:56:29.030Z,96.78
2019-01-27T06:57:29.008Z,97.30
2019-01-27T06:58:29.004Z,96.67
2019-01-27T06:59:28.977Z,96.47
2019-01-27T07:00:29.035Z,96.47
2019-01-27T07:01:28.968Z,96.36
2019-01-27T07:02:29.686Z,97.40
2019-01-27T07:03:28.939Z,96.98
2019-01-27T07:04:29.011Z,96.98
2019-01-27T07:05:28.907Z,96.88
2019-01-27T07:06:28.987Z,97.30
2019-01-27T07:07:28.878Z,96.88
2019-01-27T07:08:29.008Z,97.19
2019-01-27T07:09:28.873Z,97.09
2019-01-27T07:10:28.919Z,96.98
2019-01-27T07:11:28.880Z,97.30
2019-01-27T07:12:28.850Z,96.36
2019-01-27T07:13:28.810Z,96.36
2019-01-27T07:14:28.891Z,96.57
2019-01-27T07:15:28.801Z,96.04
2019-01-27T07:16:28.831Z,95.94
2019-01-27T07:17:28.783Z,96.11
2019-01-27T07:18:28.752Z,96.00
2019-01-27T07:19:28.744Z,96.21
2019-01-27T07:20:28.794Z,96.42
2019-01-27T07:21:28.723Z,95.90
2019-01-27T07:22:28.786Z,96.04
2019-01-27T07:23:30.744Z,96.31
2019-01-27T07:24:29.918Z,96.31
2019-01-27T07:25:28.765Z,96.67
2019-01-27T07:26:28.675Z,96.42
2019-01-27T07:27:29.746Z,96.25
2019-01-27T07:28:28.917Z,96.62
2019-01-27T07:29:28.716Z,96.47
2019-01-27T07:30:28.629Z,96.36
2019-01-27T07:31:28.659Z,97.40
2019-01-27T07:32:28.617Z,96.31
2019-01-27T07:33:28.697Z,97.45
2019-01-27T07:34:28.578Z,97.25
2019-01-27T07:35:28.618Z,96.98
2019-01-27T07:36:28.559Z,97.25
2019-01-27T07:37:28.610Z,97.04
2019-01-27T07:38:28.540Z,97.14
2019-01-27T07:39:28.533Z,96.94
2019-01-27T07:40:28.560Z,97.45
2019-01-27T07:41:28.550Z,96.42
2019-01-27T07:42:29.160Z,96.42
2019-01-27T07:43:28.485Z,96.21
2019-01-27T07:44:28.463Z,96.00
2019-01-27T07:45:28.505Z,96.21
2019-01-27T07:46:28.436Z,95.48
2019-01-27T07:47:28.485Z,94.51
2019-01-27T07:48:28.426Z,94.82
2019-01-27T07:49:28.407Z,94.92
2019-01-27T07:50:28.395Z,94.92
2019-01-27T07:51:28.405Z,94.61
2019-01-27T07:52:28.386Z,93.78
2019-01-27T07:53:29.256Z,93.57
2019-01-27T07:54:28.531Z,93.88
2019-01-27T07:55:28.617Z,93.78
2019-01-27T07:56:28.842Z,93.88
2019-01-27T07:57:28.329Z,94.71
2019-01-27T07:58:28.379Z,94.30
2019-01-27T07:59:28.289Z,95.13
2019-01-27T08:00:29.339Z,94.82
2019-01-27T08:01:28.269Z,93.47
2019-01-27T08:02:28.304Z,92.59
2019-01-27T08:03:28.251Z,92.38
2019-01-27T08:04:28.290Z,92.28
2019-01-27T08:05:28.223Z,92.59
2019-01-27T08:06:28.325Z,92.97
2019-01-27T08:07:28.222Z,92.45
2019-01-27T08:08:28.772Z,92.45
2019-01-27T08:09:28.855Z,92.35
2019-01-27T08:10:28.174Z,92.45
2019-01-27T08:11:28.273Z,92.35
2019-01-27T08:12:28.174Z,92.45
2019-01-27T08:13:28.208Z,92.03
2019-01-27T08:14:28.135Z,91.93
2019-01-27T08:15:28.125Z,92.14
2019-01-27T08:16:28.128Z,92.55
2019-01-27T08:17:29.145Z,92.86
2019-01-27T08:18:28.094Z,93.07
2019-01-27T08:19:29.137Z,92.66
2019-01-27T08:20:28.077Z,92.97
2019-01-27T08:21:28.047Z,92.86
2019-01-27T08:22:28.168Z,93.90
2019-01-27T08:23:28.028Z,93.49
2019-01-27T08:24:28.068Z,93.59
2019-01-27T08:25:28.011Z,93.59
2019-01-27T08:26:28.090Z,93.49
2019-01-27T08:27:28.011Z,93.28
2019-01-27T08:28:28.021Z,94.01
2019-01-27T08:29:27.962Z,93.59
2019-01-27T08:30:28.062Z,92.14
2019-01-27T08:31:27.942Z,92.35
2019-01-27T08:32:28.043Z,91.10
2019-01-27T08:33:27.901Z,90.33
2019-01-27T08:34:27.922Z,90.44
2019-01-27T08:35:27.883Z,90.33
2019-01-27T08:36:27.883Z,90.19
2019-01-27T08:37:27.974Z,90.95
2019-01-27T08:38:28.130Z,89.77
2019-01-27T08:39:27.864Z,89.15
2019-01-27T08:40:27.816Z,88.84
2019-01-27T08:41:27.815Z,88.28
2019-01-27T08:42:27.922Z,88.39
2019-01-27T08:43:27.796Z,88.39
2019-01-27T08:44:27.810Z,87.82
2019-01-27T08:45:27.776Z,87.62
2019-01-27T08:46:27.757Z,87.62
2019-01-27T08:47:27.769Z,86.07
2019-01-27T08:48:27.777Z,86.07
2019-01-27T08:49:27.728Z,86.17
2019-01-27T08:50:27.820Z,85.89
2019-01-27T08:51:27.700Z,86.07
2019-01-27T08:52:27.799Z,86.17
2019-01-27T08:53:27.700Z,86.00
2019-01-27T08:54:27.794Z,86.47
2019-01-27T08:55:27.674Z,86.62
2019-01-27T08:56:27.731Z,86.21
2019-01-27T08:57:27.663Z,86.52
2019-01-27T08:58:27.662Z,85.96
2019-01-27T08:59:27.619Z,86.58
2019-01-27T09:00:27.704Z,86.89
2019-01-27T09:01:27.604Z,86.93
2019-01-27T09:02:27.603Z,87.76
2019-01-27T09:03:27.604Z,87.82
2019-01-27T09:04:27.564Z,87.87
2019-01-27T09:05:27.635Z,88.07
2019-01-27T09:06:27.547Z,87.55
2019-01-27T09:07:27.546Z,86.83
2019-01-27T09:08:27.536Z,87.24
2019-01-27T09:09:27.626Z,87.76
2019-01-27T09:10:27.498Z,87.87
2019-01-27T09:11:27.488Z,87.97
2019-01-27T09:12:27.488Z,87.97
2019-01-27T09:13:27.468Z,87.35
2019-01-27T09:14:27.560Z,88.07
2019-01-27T09:15:27.439Z,87.51
2019-01-27T09:16:27.479Z,87.30
2019-01-27T09:17:27.502Z,87.66
2019-01-27T09:18:27.418Z,87.93
2019-01-27T09:19:27.480Z,87.82
2019-01-27T09:20:27.383Z,88.65
2019-01-27T09:21:27.421Z,88.28
2019-01-27T09:22:27.391Z,88.69
2019-01-27T09:23:27.454Z,88.55
2019-01-27T09:24:27.920Z,89.62
2019-01-27T09:25:27.393Z,89.62
2019-01-27T09:26:27.304Z,89.62
2019-01-27T09:27:27.324Z,90.04
2019-01-27T09:28:27.294Z,89.94
2019-01-27T09:29:27.364Z,90.14
2019-01-27T09:30:27.265Z,89.11
2019-01-27T09:31:28.335Z,89.00
2019-01-27T09:32:27.236Z,89.58
2019-01-27T09:33:27.246Z,88.48
2019-01-27T09:34:27.307Z,88.55
2019-01-27T09:35:27.207Z,88.03
2019-01-27T09:36:27.237Z,88.24
2019-01-27T09:37:27.189Z,87.82
2019-01-27T09:38:27.199Z,87.93
2019-01-27T09:39:27.168Z,87.51
2019-01-27T09:40:27.208Z,87.30
2019-01-27T09:41:27.150Z,87.99
2019-01-27T09:42:27.263Z,86.27
2019-01-27T09:43:27.140Z,85.92
2019-01-27T09:44:27.191Z,86.02
2019-01-27T09:45:27.101Z,86.65
2019-01-27T09:46:27.121Z,87.27
2019-01-27T09:47:27.082Z,87.06
2019-01-27T09:48:27.082Z,86.85
2019-01-27T09:49:27.052Z,86.85
2019-01-27T09:50:27.093Z,87.68
2019-01-27T09:51:27.866Z,87.88
2019-01-27T09:52:27.134Z,88.20
2019-01-27T09:53:27.025Z,87.57
2019-01-27T09:54:27.065Z,88.09
2019-01-27T09:55:26.985Z,87.78
2019-01-27T09:56:26.995Z,88.09
2019-01-27T09:57:26.966Z,88.09
2019-01-27T09:58:26.986Z,88.36
2019-01-27T09:59:26.947Z,88.82
2019-01-27T10:00:26.967Z,89.54
2019-01-27T10:01:26.917Z,89.34
2019-01-27T10:02:27.009Z,88.71
2019-01-27T10:03:26.908Z,88.92
2019-01-27T10:04:26.890Z,88.92
2019-01-27T10:05:26.879Z,88.82
2019-01-27T10:06:27.900Z,89.23
2019-01-27T10:07:26.842Z,87.99
2019-01-27T10:08:26.960Z,88.20
2019-01-27T10:09:26.811Z,88.09
2019-01-27T10:10:27.891Z,87.88
2019-01-27T10:11:26.854Z,87.57
2019-01-27T10:12:26.884Z,88.06
2019-01-27T10:13:26.793Z,87.74
2019-01-27T10:14:26.823Z,87.74
2019-01-27T10:15:26.754Z,87.64
2019-01-27T10:16:26.883Z,87.02
2019-01-27T10:17:26.734Z,87.43
2019-01-27T10:18:26.844Z,87.12
2019-01-27T10:19:26.695Z,87.54
2019-01-27T10:20:26.695Z,87.64
2019-01-27T10:21:26.688Z,86.91
2019-01-27T10:22:26.785Z,86.91
2019-01-27T10:23:26.676Z,86.19
2019-01-27T10:24:26.706Z,86.40
2019-01-27T10:25:26.647Z,85.88
2019-01-27T10:26:26.747Z,85.74
2019-01-27T10:27:26.628Z,85.47
2019-01-27T10:28:26.731Z,85.78
2019-01-27T10:29:26.608Z,84.84
2019-01-27T10:30:26.609Z,85.42
2019-01-27T10:31:26.580Z,85.16
2019-01-27T10:32:26.650Z,85.74
2019-01-27T10:33:26.581Z,84.33
2019-01-27T10:34:26.581Z,84.60
2019-01-27T10:35:26.541Z,85.42
2019-01-27T10:36:26.541Z,84.60
2019-01-27T10:37:26.592Z,85.02
2019-01-27T10:38:26.517Z,84.77
2019-01-27T10:39:26.522Z,84.56
2019-01-27T10:40:26.483Z,84.36
2019-01-27T10:41:26.474Z,84.45
2019-01-27T10:42:26.466Z,84.56
2019-01-27T10:43:26.545Z,83.84
2019-01-27T10:44:26.436Z,83.53
2019-01-27T10:45:26.535Z,83.63
2019-01-27T10:46:26.415Z,84.05
2019-01-27T10:47:26.406Z,83.42
2019-01-27T10:48:26.486Z,83.73
2019-01-27T10:49:26.389Z,84.45
2019-01-27T10:50:26.468Z,83.73
2019-01-27T10:51:26.360Z,83.11
2019-01-27T10:52:26.353Z,84.36
2019-01-27T10:53:26.349Z,84.05
2019-01-27T10:54:26.341Z,83.98
2019-01-27T10:55:26.299Z,83.94
2019-01-27T10:56:26.382Z,84.70
2019-01-27T10:57:26.280Z,86.11
2019-01-27T10:58:26.350Z,85.28
2019-01-27T10:59:26.263Z,85.91
2019-01-27T11:00:26.352Z,85.63
2019-01-27T11:01:26.234Z,85.60
2019-01-27T11:02:26.281Z,86.01
2019-01-27T11:03:26.233Z,85.91
2019-01-27T11:04:26.314Z,84.87
2019-01-27T11:05:26.213Z,85.02
2019-01-27T11:06:26.254Z,85.74
2019-01-27T11:07:26.175Z,85.32
2019-01-27T11:08:26.174Z,85.02
2019-01-27T11:09:32.807Z,85.42
2019-01-27T11:10:26.145Z,85.11
2019-01-27T11:11:26.205Z,84.70
2019-01-27T11:12:26.116Z,84.60
2019-01-27T11:13:26.117Z,83.98
2019-01-27T11:14:26.088Z,83.15
2019-01-27T11:15:26.167Z,83.67
2019-01-27T11:16:26.078Z,83.05
2019-01-27T11:17:26.108Z,83.15
2019-01-27T11:18:26.119Z,84.29
2019-01-27T11:19:26.039Z,83.15
2019-01-27T11:20:26.109Z,83.36
2019-01-27T11:21:26.022Z,83.56
2019-01-27T11:22:26.050Z,84.19
2019-01-27T11:23:26.000Z,84.70
2019-01-27T11:24:26.031Z,84.81
2019-01-27T11:25:25.972Z,84.81
2019-01-27T11:26:26.022Z,84.39
2019-01-27T11:27:32.827Z,85.63
2019-01-27T11:28:26.987Z,85.63
2019-01-27T11:29:25.944Z,85.47
2019-01-27T11:30:25.984Z,86.09
2019-01-27T11:31:25.905Z,85.68
2019-01-27T11:32:25.925Z,85.74
2019-01-27T11:33:25.886Z,85.47
2019-01-27T11:34:25.887Z,85.78
2019-01-27T11:35:25.868Z,85.99
2019-01-27T11:36:25.896Z,84.74
2019-01-27T11:37:25.836Z,84.29
2019-01-27T11:38:25.935Z,84.53
2019-01-27T11:39:25.827Z,84.74
2019-01-27T11:40:25.867Z,85.68
2019-01-27T11:41:25.788Z,84.70
2019-01-27T11:42:25.800Z,85.32
2019-01-27T11:43:25.759Z,85.47
2019-01-27T11:44:26.809Z,84.84
2019-01-27T11:45:25.750Z,84.70
2019-01-27T11:46:25.782Z,85.42
2019-01-27T11:47:25.711Z,84.39
2019-01-27T11:48:25.814Z,84.33
2019-01-27T11:49:25.711Z,84.19
2019-01-27T11:50:25.682Z,84.60
2019-01-27T11:51:25.673Z,84.50
2019-01-27T11:52:25.784Z,84.70
2019-01-27T11:53:25.643Z,84.50
2019-01-27T11:54:25.764Z,84.50
2019-01-27T11:55:26.705Z,84.60
2019-01-27T11:56:25.634Z,83.46
2019-01-27T11:57:25.726Z,83.15
2019-01-27T11:58:25.586Z,84.19
2019-01-27T11:59:25.697Z,84.19
2019-01-27T12:00:25.566Z,82.95
2019-01-27T12:01:25.578Z,82.84
2019-01-27T12:02:25.658Z,82.74
2019-01-27T12:03:25.539Z,82.22
2019-01-27T12:04:25.638Z,82.70
2019-01-27T12:05:25.518Z,83.94
2019-01-27T12:06:25.509Z,83.01
2019-01-27T12:07:25.499Z,82.60
2019-01-27T12:08:25.579Z,81.94
2019-01-27T12:09:25.491Z,81.21
2019-01-27T12:10:25.511Z,81.80
2019-01-27T12:11:25.471Z,81.80
2019-01-27T12:12:25.442Z,82.31
2019-01-27T12:13:25.512Z,82.21
2019-01-27T12:14:25.433Z,82.73
2019-01-27T12:15:25.443Z,83.25
2019-01-27T12:16:25.393Z,83.76
2019-01-27T12:17:25.483Z,83.65
2019-01-27T12:18:25.373Z,84.00
2019-01-27T12:19:25.464Z,84.52
2019-01-27T12:20:25.359Z,84.73
2019-01-27T12:21:25.361Z,83.84
2019-01-27T12:22:25.325Z,84.52
2019-01-27T12:23:25.386Z,85.35
2019-01-27T12:24:25.317Z,85.24
2019-01-27T12:25:25.328Z,85.91
2019-01-27T12:26:25.287Z,84.36
2019-01-27T12:27:25.268Z,85.28
2019-01-27T12:28:25.327Z,84.87
2019-01-27T12:29:25.616Z,85.60
2019-01-27T12:30:25.261Z,84.87
2019-01-27T12:31:25.229Z,85.28
2019-01-27T12:32:25.210Z,85.70
2019-01-27T12:33:25.201Z,85.84
2019-01-27T12:34:25.304Z,86.21
2019-01-27T12:35:25.171Z,86.36
2019-01-27T12:36:25.271Z,86.88
2019-01-27T12:37:25.151Z,86.73
2019-01-27T12:38:25.132Z,86.73
2019-01-27T12:39:25.218Z,86.11
2019-01-27T12:40:25.114Z,85.80
2019-01-27T12:41:25.245Z,86.52
2019-01-27T12:42:25.093Z,86.73
2019-01-27T12:43:25.098Z,86.52
2019-01-27T12:44:25.156Z,86.32
2019-01-27T12:45:25.095Z,86.46
2019-01-27T12:46:25.145Z,85.84
2019-01-27T12:47:25.036Z,86.46
2019-01-27T12:48:25.036Z,85.74
2019-01-27T12:49:25.107Z,86.36
2019-01-27T12:50:25.007Z,87.39
2019-01-27T12:51:25.088Z,88.01
2019-01-27T12:52:25.011Z,87.85